Arkoma, Oklahoma
Current Conditions -  °F | °C
As of 10:53 AM on Saturday 20 Dec 2014 (Local Time) from KFSM Reporting Station
Haze Haze  
Wind Chill: 44°   Ceiling: 900
Heat Index: 44°   Visibility: 3mi
Dew Point: 39°   Wind: 0mph
Humidity: 82%   Direction: NA
Pressure: 30.27"   Gusts: NA
Location:  35.35°N, 94.43°W
Report Text: KFSM 201653Z 00000KT 3SM HZ OVC009 07/04 A3027 RMK AO2 SLP251 T00670039
Loading
Personal Weather Stations






























Interactive Weather Map New forecast layout! Learn more

10-Day Weather Forecast

Advertisements
Track Severe Weather on mobile